createdAt,value
2018-08-17T00:04:03.604Z,99.90
2018-08-17T00:10:08.420Z,99.90
2018-08-17T00:16:13.121Z,99.90
2018-08-17T00:22:17.813Z,99.90
2018-08-17T00:28:22.460Z,99.90
2018-08-17T00:34:27.224Z,99.90
2018-08-17T00:40:33.028Z,99.90
2018-08-17T00:46:37.846Z,99.90
2018-08-17T00:52:42.652Z,99.90
2018-08-17T00:58:47.803Z,99.90
2018-08-17T01:04:52.604Z,99.90
2018-08-17T01:10:57.280Z,99.90
2018-08-17T01:17:02.894Z,99.90
2018-08-17T01:23:07.880Z,99.90
2018-08-17T01:29:12.556Z,99.90
2018-08-17T01:35:17.247Z,99.90
2018-08-17T01:41:22.023Z,99.90
2018-08-17T01:47:26.706Z,99.90
2018-08-17T01:53:31.676Z,99.90
2018-08-17T01:59:36.397Z,99.90
2018-08-17T02:05:41.120Z,99.90
2018-08-17T02:11:46.054Z,99.90
2018-08-17T02:17:50.816Z,99.90
2018-08-17T02:23:55.486Z,99.90
2018-08-17T02:30:00.596Z,99.90
2018-08-17T02:36:05.306Z,99.90
2018-08-17T02:42:10.149Z,99.90
2018-08-17T02:48:14.811Z,99.90
2018-08-17T02:54:19.548Z,99.90
2018-08-17T03:00:24.268Z,99.90
2018-08-17T03:06:29.049Z,99.90
2018-08-17T03:12:34.137Z,99.90
2018-08-17T03:18:38.904Z,99.90
2018-08-17T03:24:43.698Z,99.90
2018-08-17T03:30:48.352Z,99.90
2018-08-17T03:36:53.366Z,99.90
2018-08-17T03:42:58.153Z,99.90
2018-08-17T03:49:02.975Z,99.90
2018-08-17T03:55:07.714Z,99.90
2018-08-17T04:01:12.782Z,99.90
2018-08-17T04:07:17.436Z,99.90
2018-08-17T04:13:22.165Z,99.90
2018-08-17T04:19:26.834Z,99.90
2018-08-17T04:25:33.417Z,99.90
2018-08-17T04:31:38.145Z,99.90
2018-08-17T04:37:42.828Z,99.90
2018-08-17T04:43:47.557Z,99.90
2018-08-17T04:49:52.289Z,99.90
2018-08-17T04:55:56.981Z,99.90
2018-08-17T05:02:01.804Z,99.90
2018-08-17T05:08:06.544Z,99.90
2018-08-17T05:14:11.350Z,99.90
2018-08-17T05:20:16.403Z,99.90
2018-08-17T05:26:21.069Z,99.90
2018-08-17T05:32:25.736Z,99.90
2018-08-17T05:38:30.572Z,99.90
2018-08-17T05:44:36.063Z,99.90
2018-08-17T05:50:40.748Z,99.90
2018-08-17T05:56:45.934Z,99.90
2018-08-17T06:02:50.885Z,99.90
2018-08-17T06:08:55.626Z,99.90
2018-08-17T06:15:00.440Z,99.90
2018-08-17T06:21:05.806Z,99.90
2018-08-17T06:27:10.603Z,99.90
2018-08-17T06:33:15.297Z,99.90
2018-08-17T06:39:20.147Z,99.90
2018-08-17T06:45:24.827Z,99.90
2018-08-17T06:51:30.552Z,99.90
2018-08-17T06:57:35.464Z,99.90
2018-08-17T07:03:40.117Z,99.90
2018-08-17T07:09:45.094Z,99.90
2018-08-17T07:15:49.804Z,99.90
2018-08-17T07:21:54.571Z,99.90
2018-08-17T07:27:59.359Z,99.90
2018-08-17T07:34:04.626Z,99.90
2018-08-17T07:40:10.335Z,99.90
2018-08-17T07:46:15.135Z,99.90
2018-08-17T07:52:19.776Z,99.90
2018-08-17T07:58:24.836Z,99.90
2018-08-17T08:04:29.640Z,99.90
2018-08-17T08:10:35.250Z,99.90
2018-08-17T08:16:40.120Z,99.90
2018-08-17T08:22:45.055Z,99.90
2018-08-17T08:28:49.972Z,99.90
2018-08-17T08:34:54.752Z,99.90
2018-08-17T08:41:00.408Z,99.90
2018-08-17T08:47:05.218Z,99.90
2018-08-17T08:53:10.483Z,99.90
2018-08-17T08:59:15.323Z,99.90
2018-08-17T09:05:20.564Z,99.90
2018-08-17T09:11:25.386Z,99.90
2018-08-17T09:17:30.968Z,99.90
2018-08-17T09:23:35.650Z,99.90
2018-08-17T09:29:40.488Z,99.90
2018-08-17T09:35:45.538Z,99.90
2018-08-17T09:41:50.362Z,99.20
2018-08-17T09:47:54.940Z,99.00
2018-08-17T09:54:00.320Z,98.60
2018-08-17T10:00:06.972Z,98.60
2018-08-17T10:06:16.894Z,98.10
2018-08-17T10:12:21.672Z,97.70
2018-08-17T10:18:33.187Z,95.60
2018-08-17T10:24:38.406Z,94.80
2018-08-17T10:30:43.264Z,90.30
2018-08-17T10:36:48.236Z,90.10
2018-08-17T10:42:52.933Z,90.00
2018-08-17T10:48:57.673Z,84.40
2018-08-17T10:55:03.166Z,77.00
2018-08-17T11:01:08.137Z,73.30
2018-08-17T11:07:13.090Z,71.70
2018-08-17T11:13:18.098Z,68.70
2018-08-17T11:19:22.791Z,65.10
2018-08-17T11:25:27.853Z,60.80
2018-08-17T11:31:33.738Z,58.40
2018-08-17T11:37:38.525Z,55.00
2018-08-17T11:43:43.184Z,55.90
2018-08-17T11:49:48.224Z,54.00
2018-08-17T11:55:52.904Z,53.30
2018-08-17T12:01:57.840Z,52.50
2018-08-17T12:08:04.569Z,54.10
2018-08-17T12:14:09.399Z,51.20
2018-08-17T12:20:14.108Z,49.50
2018-08-17T12:26:18.901Z,48.20
2018-08-17T12:32:24.470Z,48.00
2018-08-17T12:38:29.398Z,47.50
2018-08-17T12:44:34.495Z,47.40
2018-08-17T12:50:39.298Z,47.10
2018-08-17T12:56:43.973Z,44.90
2018-08-17T13:02:48.730Z,46.70
2018-08-17T13:08:53.489Z,45.30
2018-08-17T13:14:58.213Z,45.00
2018-08-17T13:21:03.959Z,43.50
2018-08-17T13:27:08.708Z,43.30
2018-08-17T13:33:13.376Z,42.40
2018-08-17T13:39:18.391Z,41.70
2018-08-17T13:45:23.184Z,41.10
2018-08-17T13:51:27.952Z,42.30
2018-08-17T13:57:32.838Z,39.90
2018-08-17T14:03:37.702Z,43.10
2018-08-17T14:09:42.443Z,45.70
2018-08-17T14:15:47.143Z,45.60
2018-08-17T14:21:51.906Z,45.70
2018-08-17T14:27:56.599Z,45.10
2018-08-17T14:34:01.395Z,45.10
2018-08-17T14:40:06.875Z,46.40
2018-08-17T14:46:11.551Z,43.40
2018-08-17T14:52:16.377Z,42.60
2018-08-17T14:58:21.057Z,45.60
2018-08-17T15:04:25.837Z,48.70
2018-08-17T15:10:30.984Z,47.50
2018-08-17T15:16:35.866Z,48.60
2018-08-17T15:22:40.658Z,49.60
2018-08-17T15:28:45.504Z,50.50
2018-08-17T15:34:50.197Z,49.90
2018-08-17T15:40:55.300Z,50.50
2018-08-17T15:47:00.307Z,51.70
2018-08-17T15:53:05.373Z,50.70
2018-08-17T15:59:10.160Z,51.70
2018-08-17T16:05:15.350Z,51.50
2018-08-17T16:11:20.057Z,54.00
2018-08-17T16:17:24.740Z,56.70
2018-08-17T16:23:29.542Z,58.20
2018-08-17T16:29:34.371Z,60.10
2018-08-17T16:35:39.252Z,63.30
2018-08-17T16:41:44.232Z,64.00
2018-08-17T16:47:48.924Z,66.10
2018-08-17T16:53:54.703Z,70.50
2018-08-17T16:59:59.616Z,74.30
2018-08-17T17:06:05.771Z,78.80
2018-08-17T17:12:18.166Z,81.30
2018-08-17T17:18:22.838Z,84.80
2018-08-17T17:24:27.671Z,88.10
2018-08-17T17:30:42.443Z,87.30
2018-08-17T17:36:47.154Z,85.50
2018-08-17T17:42:51.965Z,85.00
2018-08-17T17:48:56.583Z,84.90
2018-08-17T17:55:01.826Z,86.40
2018-08-17T18:01:07.713Z,87.00
2018-08-17T18:07:12.551Z,89.50
2018-08-17T18:13:17.769Z,90.00
2018-08-17T18:19:22.677Z,91.10
2018-08-17T18:25:27.340Z,92.50
2018-08-17T18:31:32.829Z,93.70
2018-08-17T18:37:37.756Z,95.00
2018-08-17T18:43:42.558Z,96.10
2018-08-17T18:49:47.200Z,97.30
2018-08-17T18:55:51.860Z,98.30
2018-08-17T19:01:56.672Z,99.30
2018-08-17T19:08:01.905Z,99.70
2018-08-17T19:14:06.940Z,99.90
2018-08-17T19:20:13.999Z,99.90
2018-08-17T19:26:18.715Z,99.90
2018-08-17T19:32:23.530Z,99.90
2018-08-17T19:38:28.682Z,99.90
2018-08-17T19:44:34.331Z,99.90
2018-08-17T19:50:38.982Z,99.90
2018-08-17T19:56:43.649Z,99.90
2018-08-17T20:02:48.365Z,99.90
2018-08-17T20:08:53.056Z,99.90
2018-08-17T20:14:57.774Z,99.90
2018-08-17T20:21:03.238Z,99.90
2018-08-17T20:27:08.298Z,99.90
2018-08-17T20:33:21.844Z,99.90
2018-08-17T20:39:26.477Z,99.90
2018-08-17T20:45:31.530Z,99.90
2018-08-17T20:51:43.516Z,99.90
2018-08-17T20:57:51.882Z,99.90
2018-08-17T21:03:56.592Z,99.90
2018-08-17T21:10:01.761Z,99.90
2018-08-17T21:16:06.544Z,99.90
2018-08-17T21:22:11.580Z,99.90
2018-08-17T21:28:16.728Z,99.90
2018-08-17T21:34:21.631Z,99.90
2018-08-17T21:40:29.087Z,99.90
2018-08-17T21:46:33.874Z,99.90
2018-08-17T21:52:38.558Z,99.90
2018-08-17T21:58:43.239Z,99.90
2018-08-17T22:04:48.242Z,99.90
2018-08-17T22:10:53.673Z,99.90
2018-08-17T22:16:58.573Z,99.90
2018-08-17T22:23:03.418Z,99.90
2018-08-17T22:29:08.145Z,99.90
2018-08-17T22:35:13.544Z,99.90
2018-08-17T22:41:18.588Z,99.90
2018-08-17T22:47:28.686Z,99.90
2018-08-17T22:53:34.445Z,99.90
2018-08-17T22:59:39.518Z,99.90
2018-08-17T23:05:44.519Z,99.90
2018-08-17T23:11:49.174Z,99.90
2018-08-17T23:17:58.172Z,99.90
2018-08-17T23:24:03.138Z,99.90
2018-08-17T23:30:08.305Z,99.90
2018-08-17T23:36:12.990Z,99.90
2018-08-17T23:42:17.860Z,99.90
2018-08-17T23:48:22.799Z,99.90
2018-08-17T23:54:27.453Z,99.90
